createdAt,value
2019-02-16T00:00:26.419Z,3.1
2019-02-16T00:03:25.621Z,3
2019-02-16T00:06:26.449Z,3
2019-02-16T00:09:25.276Z,3.3
2019-02-16T00:12:25.472Z,2.9
2019-02-16T00:15:25.489Z,3
2019-02-16T00:18:25.338Z,2.8
2019-02-16T00:21:27.279Z,3
2019-02-16T00:24:25.494Z,2.8
2019-02-16T00:27:25.479Z,2.9
2019-02-16T00:30:25.131Z,3.2
2019-02-16T00:33:25.065Z,3
2019-02-16T00:36:25.682Z,3.1
2019-02-16T00:39:25.408Z,3
2019-02-16T00:42:25.065Z,3.1
2019-02-16T00:45:25.492Z,3.4
2019-02-16T00:48:25.442Z,3
2019-02-16T00:51:25.608Z,3
2019-02-16T00:54:25.941Z,2.9
2019-02-16T00:57:25.779Z,2.8
2019-02-16T01:00:25.173Z,3.2
2019-02-16T01:03:25.086Z,3.1
2019-02-16T01:06:25.868Z,3
2019-02-16T01:09:25.092Z,3.1
2019-02-16T01:12:25.500Z,3.1
2019-02-16T01:15:25.333Z,2.8
2019-02-16T01:18:25.100Z,2.7
2019-02-16T01:21:25.243Z,2.9
2019-02-16T01:24:24.910Z,3.1
2019-02-16T01:27:24.939Z,2.8
2019-02-16T01:30:25.751Z,2.8
2019-02-16T01:33:27.020Z,3
2019-02-16T01:36:24.856Z,3
2019-02-16T01:39:25.531Z,2.8
2019-02-16T01:42:25.182Z,3.1
2019-02-16T01:45:25.015Z,2.7
2019-02-16T01:48:26.140Z,3.8
2019-02-16T01:51:32.487Z,2.7
2019-02-16T01:54:26.843Z,3
2019-02-16T01:57:25.498Z,2.6
2019-02-16T02:00:25.290Z,2.7
2019-02-16T02:03:25.542Z,3
2019-02-16T02:06:25.280Z,2.7
2019-02-16T02:09:25.642Z,2.9
2019-02-16T02:12:25.309Z,2.9
2019-02-16T02:15:25.160Z,3.1
2019-02-16T02:18:26.906Z,3
2019-02-16T02:21:25.459Z,2.6
2019-02-16T02:24:25.278Z,2.7
2019-02-16T02:27:26.010Z,2.6
2019-02-16T02:30:25.489Z,2.8
2019-02-16T02:33:25.866Z,3
2019-02-16T02:36:25.435Z,2.7
2019-02-16T02:39:25.331Z,2.8
2019-02-16T02:42:25.344Z,3
2019-02-16T02:45:25.187Z,2.7
2019-02-16T02:48:25.014Z,2.7
2019-02-16T02:51:25.981Z,3
2019-02-16T02:54:25.823Z,3
2019-02-16T02:57:24.924Z,3.1
2019-02-16T03:00:25.022Z,2.9
2019-02-16T03:03:25.378Z,2.8
2019-02-16T03:06:25.817Z,3
2019-02-16T03:09:25.005Z,3.1
2019-02-16T03:12:25.871Z,2.8
2019-02-16T03:15:25.460Z,2.8
2019-02-16T03:18:25.217Z,2.8
2019-02-16T03:21:26.030Z,3.3
2019-02-16T03:24:25.282Z,3
2019-02-16T03:27:25.261Z,2.7
2019-02-16T03:30:25.500Z,3.1
2019-02-16T03:33:25.357Z,2.8
2019-02-16T03:36:25.667Z,2.8
2019-02-16T03:39:26.037Z,2.8
2019-02-16T03:42:25.568Z,3
2019-02-16T03:45:25.374Z,2.9
2019-02-16T03:48:25.217Z,3.1
2019-02-16T03:51:25.030Z,3
2019-02-16T03:54:25.695Z,3
2019-02-16T03:57:25.257Z,2.9
2019-02-16T04:00:26.062Z,3
2019-02-16T04:03:25.202Z,3.1
2019-02-16T04:06:25.013Z,2.9
2019-02-16T04:09:25.192Z,3.1
2019-02-16T04:12:25.361Z,3
2019-02-16T04:15:25.099Z,2.9
2019-02-16T04:18:25.036Z,3.1
2019-02-16T04:21:25.137Z,3
2019-02-16T04:24:25.595Z,2.9
2019-02-16T04:27:25.295Z,3.1
2019-02-16T04:30:24.954Z,2.8
2019-02-16T04:33:25.090Z,3.2
2019-02-16T04:36:25.186Z,3
2019-02-16T04:39:25.959Z,3
2019-02-16T04:42:25.073Z,3
2019-02-16T04:45:26.233Z,3
2019-02-16T04:48:25.964Z,2.9
2019-02-16T04:51:25.316Z,3.1
2019-02-16T04:54:24.997Z,3.1
2019-02-16T04:57:25.872Z,2.7
2019-02-16T05:00:25.019Z,2.9
2019-02-16T05:03:25.027Z,3.1
2019-02-16T05:06:25.176Z,2.8
2019-02-16T05:09:25.316Z,2.7
2019-02-16T05:12:25.269Z,3
2019-02-16T05:15:25.571Z,2.8
2019-02-16T05:18:25.740Z,2.7
2019-02-16T05:21:25.069Z,2.7
2019-02-16T05:24:25.123Z,2.7
2019-02-16T05:27:26.488Z,2.9
2019-02-16T05:30:25.687Z,3
2019-02-16T05:33:25.447Z,2.9
2019-02-16T05:36:26.931Z,2.8
2019-02-16T05:39:25.551Z,3.4
2019-02-16T05:42:25.200Z,2.8
2019-02-16T05:45:24.944Z,2.8
2019-02-16T05:48:25.750Z,2.8
2019-02-16T05:51:25.734Z,2.8
2019-02-16T05:54:25.277Z,2.8
2019-02-16T05:57:25.052Z,2.6
2019-02-16T06:00:25.467Z,2.7
2019-02-16T06:03:25.242Z,2.8
2019-02-16T06:06:25.462Z,2.9
2019-02-16T06:09:25.810Z,2.7
2019-02-16T06:12:25.070Z,2.7
2019-02-16T06:15:25.857Z,2.5
2019-02-16T06:18:25.120Z,2.5
2019-02-16T06:21:25.609Z,2.7
2019-02-16T06:24:25.508Z,2.7
2019-02-16T06:27:25.571Z,2.5
2019-02-16T06:30:25.219Z,2.6
2019-02-16T06:33:26.258Z,2.6
2019-02-16T06:36:25.048Z,2.6
2019-02-16T06:39:25.184Z,2.7
2019-02-16T06:42:25.146Z,2.6
2019-02-16T06:45:26.899Z,2.8
2019-02-16T06:48:25.970Z,2.5
2019-02-16T06:51:26.951Z,2.7
2019-02-16T06:54:25.428Z,10
2019-02-16T06:57:25.258Z,5.7
2019-02-16T07:00:25.427Z,7.6
2019-02-16T07:03:25.524Z,5.4
2019-02-16T07:06:24.745Z,5
2019-02-16T07:09:25.052Z,4.5
2019-02-16T07:12:24.906Z,4.2
2019-02-16T07:15:25.852Z,4.5
2019-02-16T07:18:25.210Z,5.4
2019-02-16T07:21:25.186Z,5.2
2019-02-16T07:24:26.763Z,4.8
2019-02-16T07:27:25.394Z,4.7
2019-02-16T07:30:25.040Z,4.9
2019-02-16T07:33:25.070Z,3.6
2019-02-16T07:36:25.828Z,3.5
2019-02-16T07:39:25.224Z,3.6
2019-02-16T07:42:25.324Z,3.7
2019-02-16T07:45:25.329Z,4.2
2019-02-16T07:48:24.907Z,3.5
2019-02-16T07:51:25.246Z,4.3
2019-02-16T07:54:24.935Z,4.5
2019-02-16T07:57:26.058Z,3.3
2019-02-16T08:00:25.225Z,3.6
2019-02-16T08:03:25.704Z,3.3
2019-02-16T08:06:25.407Z,3.4
2019-02-16T08:09:25.710Z,3.3
2019-02-16T08:12:24.895Z,3.3
2019-02-16T08:15:24.956Z,4
2019-02-16T08:18:25.594Z,3.2
2019-02-16T08:21:24.896Z,3.3
2019-02-16T08:24:25.338Z,3.1
2019-02-16T08:27:24.953Z,3.5
2019-02-16T08:30:24.821Z,4.2
2019-02-16T08:33:24.853Z,3.1
2019-02-16T08:36:25.206Z,3
2019-02-16T08:39:25.343Z,3.2
2019-02-16T08:42:24.886Z,3.1
2019-02-16T08:45:24.851Z,3.4
2019-02-16T08:48:24.922Z,3.1
2019-02-16T08:51:25.101Z,3.1
2019-02-16T08:54:24.912Z,3.1
2019-02-16T08:57:26.737Z,3
2019-02-16T09:00:24.948Z,3.1
2019-02-16T09:03:24.750Z,3.2
2019-02-16T09:06:24.937Z,3.1
2019-02-16T09:09:25.402Z,3
2019-02-16T09:12:24.982Z,3.2
2019-02-16T09:15:24.863Z,3
2019-02-16T09:18:24.971Z,2.9
2019-02-16T09:21:25.225Z,3.5
2019-02-16T09:24:25.290Z,3
2019-02-16T09:27:25.249Z,3.2
2019-02-16T09:30:24.980Z,4.8
2019-02-16T09:33:25.254Z,6.2
2019-02-16T09:36:25.036Z,8
2019-02-16T09:39:25.929Z,4.5
2019-02-16T09:42:25.030Z,3.7
2019-02-16T09:45:25.464Z,3.2
2019-02-16T09:48:25.193Z,4.2
2019-02-16T09:51:26.735Z,4.5
2019-02-16T09:54:24.791Z,5.8
2019-02-16T09:57:25.047Z,3.5
2019-02-16T10:00:24.939Z,3.2
2019-02-16T10:03:25.466Z,7.4
2019-02-16T10:06:25.651Z,6.2
2019-02-16T10:09:25.185Z,4.1
2019-02-16T10:12:25.076Z,2.9
2019-02-16T10:15:25.194Z,5.5
2019-02-16T10:18:25.004Z,3.4
2019-02-16T10:21:25.226Z,3.7
2019-02-16T10:24:25.277Z,3.5
2019-02-16T10:27:25.166Z,4.7
2019-02-16T10:30:25.304Z,7.4
2019-02-16T10:33:25.224Z,5.6
2019-02-16T10:36:25.023Z,6.9
2019-02-16T10:39:25.521Z,6
2019-02-16T10:42:28.066Z,7.7
2019-02-16T10:45:24.833Z,13
2019-02-16T10:48:25.222Z,11.1
2019-02-16T10:51:24.942Z,7.9
2019-02-16T10:54:29.992Z,8.7
2019-02-16T10:57:25.089Z,6.9
2019-02-16T11:00:25.328Z,12
2019-02-16T11:03:26.719Z,9.1
2019-02-16T11:06:26.739Z,7
2019-02-16T11:09:25.297Z,5.5
2019-02-16T11:12:25.176Z,5.2
2019-02-16T11:15:25.102Z,8.2
2019-02-16T11:18:25.132Z,5.8
2019-02-16T11:21:25.082Z,4.2
2019-02-16T11:24:25.305Z,5.2
2019-02-16T11:27:25.885Z,7
2019-02-16T11:30:24.906Z,4.5
2019-02-16T11:33:25.670Z,4.6
2019-02-16T11:36:25.279Z,4.7
2019-02-16T11:39:24.976Z,4.8
2019-02-16T11:42:24.867Z,5.5
2019-02-16T11:45:24.770Z,5.1
2019-02-16T11:48:25.283Z,4.7
2019-02-16T11:51:26.688Z,4.2
2019-02-16T11:54:25.759Z,4.2
2019-02-16T11:57:25.364Z,3.7
2019-02-16T12:00:24.882Z,4.8
2019-02-16T12:03:25.341Z,6.6
2019-02-16T12:06:24.804Z,4.4
2019-02-16T12:09:24.962Z,3.1
2019-02-16T12:12:25.254Z,4.7
2019-02-16T12:15:25.159Z,5.8
2019-02-16T12:18:25.221Z,4.1
2019-02-16T12:21:24.854Z,3.7
2019-02-16T12:24:25.491Z,3.6
2019-02-16T12:27:24.937Z,4.6
2019-02-16T12:30:25.097Z,4.1
2019-02-16T12:33:25.126Z,3.5
2019-02-16T12:36:25.571Z,4.3
2019-02-16T12:39:25.220Z,4
2019-02-16T12:42:25.134Z,3.4
2019-02-16T12:45:24.718Z,4.1
2019-02-16T12:48:24.937Z,3.4
2019-02-16T12:51:25.088Z,3.7
2019-02-16T12:54:24.992Z,3.5
2019-02-16T12:57:25.015Z,3.8
2019-02-16T13:00:25.033Z,3.6
2019-02-16T13:03:25.363Z,3.1
2019-02-16T13:06:24.889Z,7.6
2019-02-16T13:09:25.228Z,3.6
2019-02-16T13:12:25.153Z,4.3
2019-02-16T13:15:24.697Z,4.3
2019-02-16T13:18:26.705Z,2.8
2019-02-16T13:21:25.510Z,3.2
2019-02-16T13:24:24.887Z,3.2
2019-02-16T13:27:24.918Z,2.8
2019-02-16T13:30:25.481Z,3.3
2019-02-16T13:33:24.832Z,3.1
2019-02-16T13:36:24.833Z,3.9
2019-02-16T13:39:25.080Z,2.6
2019-02-16T13:42:25.593Z,2.6
2019-02-16T13:45:24.914Z,3.1
2019-02-16T13:48:24.771Z,3.2
2019-02-16T13:51:25.022Z,4
2019-02-16T13:54:26.856Z,2.8
2019-02-16T13:57:25.051Z,2.8
2019-02-16T14:00:24.911Z,2.8
2019-02-16T14:03:24.976Z,3.5
2019-02-16T14:06:24.738Z,2.9
2019-02-16T14:09:24.714Z,3.6
2019-02-16T14:12:24.582Z,2.8
2019-02-16T14:15:24.718Z,2.9
2019-02-16T14:18:25.677Z,3
2019-02-16T14:21:25.009Z,3.1
2019-02-16T14:24:24.909Z,2.5
2019-02-16T14:27:25.098Z,3.7
2019-02-16T14:30:24.963Z,2.9
2019-02-16T14:33:24.793Z,2.6
2019-02-16T14:36:24.902Z,2.5
2019-02-16T14:39:25.107Z,2.9
2019-02-16T14:42:26.673Z,2.6
2019-02-16T14:45:26.512Z,2.5
2019-02-16T14:48:25.608Z,2.6
2019-02-16T14:51:26.621Z,2.8
2019-02-16T14:54:25.058Z,2.6
2019-02-16T14:57:24.883Z,2.6
2019-02-16T15:00:25.096Z,2.4
2019-02-16T15:03:25.119Z,2.5
2019-02-16T15:06:24.710Z,2.5
2019-02-16T15:09:25.055Z,2.4
2019-02-16T15:12:24.817Z,2.5
2019-02-16T15:15:25.120Z,2.5
2019-02-16T15:18:24.797Z,2.6
2019-02-16T15:21:26.706Z,2.8
2019-02-16T15:24:24.617Z,2.5
2019-02-16T15:27:24.903Z,2.9
2019-02-16T15:30:24.788Z,2.4
2019-02-16T15:33:24.834Z,3
2019-02-16T15:36:24.753Z,2.8
2019-02-16T15:39:25.228Z,2.7
2019-02-16T15:42:24.832Z,2.6
2019-02-16T15:45:25.055Z,3
2019-02-16T15:48:24.882Z,2.7
2019-02-16T15:51:25.074Z,4.1
2019-02-16T15:54:26.619Z,3.3
2019-02-16T15:57:24.605Z,3.1
2019-02-16T16:00:25.976Z,2.8
2019-02-16T16:03:26.651Z,3.1
2019-02-16T16:06:24.859Z,2.9
2019-02-16T16:09:25.262Z,2.8
2019-02-16T16:12:25.009Z,2.7
2019-02-16T16:15:24.838Z,2.6
2019-02-16T16:18:24.801Z,4
2019-02-16T16:21:25.200Z,2.6
2019-02-16T16:24:25.218Z,4.3
2019-02-16T16:27:24.862Z,4.5
2019-02-16T16:30:25.218Z,3.8
2019-02-16T16:33:24.648Z,3
2019-02-16T16:36:24.837Z,3.7
2019-02-16T16:39:25.090Z,2.4
2019-02-16T16:42:24.806Z,2.7
2019-02-16T16:45:24.957Z,2.9
2019-02-16T16:48:24.564Z,2.7
2019-02-16T16:51:26.491Z,3.1
2019-02-16T16:54:24.792Z,2.7
2019-02-16T16:57:24.838Z,3.8
2019-02-16T17:00:25.565Z,5.4
2019-02-16T17:03:25.133Z,2.8
2019-02-16T17:06:24.724Z,2.6
2019-02-16T17:09:24.815Z,2.5
2019-02-16T17:12:24.750Z,2.3
2019-02-16T17:15:25.820Z,2.6
2019-02-16T17:18:25.166Z,2.5
2019-02-16T17:21:25.745Z,2.7
2019-02-16T17:24:25.513Z,3.1
2019-02-16T17:27:24.816Z,3
2019-02-16T17:30:24.917Z,2.4
2019-02-16T17:33:25.092Z,3.2
2019-02-16T17:36:24.830Z,2.5
2019-02-16T17:39:24.861Z,2.8
2019-02-16T17:42:25.148Z,2.6
2019-02-16T17:45:24.865Z,2.9
2019-02-16T17:48:25.050Z,2.7
2019-02-16T17:51:24.770Z,2.7
2019-02-16T17:54:24.574Z,2.9
2019-02-16T17:57:24.623Z,2.6
2019-02-16T18:00:25.144Z,2.9
2019-02-16T18:03:24.868Z,4.4
2019-02-16T18:06:25.171Z,3.8
2019-02-16T18:09:24.938Z,2.6
2019-02-16T18:12:25.207Z,2.7
2019-02-16T18:15:24.651Z,2.9
2019-02-16T18:18:24.927Z,3.4
2019-02-16T18:21:24.954Z,3
2019-02-16T18:24:24.830Z,3
2019-02-16T18:27:26.419Z,2.7
2019-02-16T18:30:25.545Z,2.9
2019-02-16T18:33:25.072Z,3.3
2019-02-16T18:36:25.933Z,3.9
2019-02-16T18:39:25.013Z,2.9
2019-02-16T18:42:24.617Z,3.3
2019-02-16T18:45:24.785Z,2.9
2019-02-16T18:48:25.527Z,3.5
2019-02-16T18:51:25.232Z,3.1
2019-02-16T18:54:24.772Z,3.7
2019-02-16T18:57:24.990Z,3.3
2019-02-16T19:00:25.052Z,3
2019-02-16T19:03:25.036Z,3
2019-02-16T19:06:25.086Z,3.1
2019-02-16T19:09:25.052Z,3
2019-02-16T19:12:24.889Z,3.5
2019-02-16T19:15:25.250Z,3
2019-02-16T19:18:25.097Z,3.1
2019-02-16T19:21:24.537Z,2.9
2019-02-16T19:24:24.851Z,3.1
2019-02-16T19:27:24.983Z,4.1
2019-02-16T19:30:25.058Z,3.9
2019-02-16T19:33:25.026Z,4.9
2019-02-16T19:36:25.199Z,3.3
2019-02-16T19:39:24.777Z,3.3
2019-02-16T19:42:24.728Z,6.4
2019-02-16T19:45:25.415Z,4.3
2019-02-16T19:48:25.129Z,3.4
2019-02-16T19:51:25.002Z,3.5
2019-02-16T19:54:25.265Z,3.7
2019-02-16T19:57:27.891Z,3.5
2019-02-16T20:00:24.552Z,3.3
2019-02-16T20:03:26.083Z,3.4
2019-02-16T20:06:25.483Z,4.6
2019-02-16T20:09:25.974Z,3.4
2019-02-16T20:12:26.314Z,3.5
2019-02-16T20:15:25.799Z,3.4
2019-02-16T20:18:24.822Z,3.6
2019-02-16T20:21:24.797Z,4.1
2019-02-16T20:24:24.617Z,4
2019-02-16T20:27:24.806Z,5
2019-02-16T20:30:24.820Z,3.6
2019-02-16T20:33:25.027Z,4.5
2019-02-16T20:36:25.615Z,3.9
2019-02-16T20:39:24.884Z,5.4
2019-02-16T20:42:25.527Z,4.3
2019-02-16T20:45:25.059Z,5.7
2019-02-16T20:48:24.637Z,6.5
2019-02-16T20:51:25.883Z,4.7
2019-02-16T20:54:25.123Z,10.6
2019-02-16T20:57:24.761Z,5
2019-02-16T21:00:25.114Z,4.9
2019-02-16T21:03:24.841Z,7
2019-02-16T21:06:24.777Z,4.6
2019-02-16T21:09:24.998Z,4.1
2019-02-16T21:12:24.709Z,4.2
2019-02-16T21:15:24.963Z,5.2
2019-02-16T21:18:25.496Z,4.3
2019-02-16T21:21:24.971Z,4.9
2019-02-16T21:24:26.526Z,5
2019-02-16T21:27:24.602Z,5.1
2019-02-16T21:30:25.273Z,4.1
2019-02-16T21:33:25.250Z,4.2
2019-02-16T21:36:24.779Z,4.7
2019-02-16T21:39:24.812Z,4.8
2019-02-16T21:42:24.725Z,5.4
2019-02-16T21:45:25.120Z,4.3
2019-02-16T21:48:24.967Z,5.3
2019-02-16T21:51:24.761Z,4
2019-02-16T21:54:24.860Z,5.1
2019-02-16T21:57:24.922Z,5.1
2019-02-16T22:00:24.520Z,4.2
2019-02-16T22:03:26.380Z,5
2019-02-16T22:06:25.826Z,4.2
2019-02-16T22:09:24.351Z,4.3
2019-02-16T22:12:24.775Z,5
2019-02-16T22:15:24.931Z,4.5
2019-02-16T22:18:24.737Z,4.3
2019-02-16T22:21:24.824Z,4.5
2019-02-16T22:24:25.108Z,4.5
2019-02-16T22:27:25.571Z,4.9
2019-02-16T22:30:26.503Z,4.9
2019-02-16T22:33:26.432Z,4.4
2019-02-16T22:36:24.968Z,4.8
2019-02-16T22:39:24.837Z,4.4
2019-02-16T22:42:24.838Z,4.4
2019-02-16T22:45:24.650Z,4.3
2019-02-16T22:48:26.298Z,4.4
2019-02-16T22:51:24.684Z,4.5
2019-02-16T22:54:24.718Z,4.6
2019-02-16T22:57:24.830Z,4.5
2019-02-16T23:00:24.845Z,4.5
2019-02-16T23:03:24.598Z,4.4
2019-02-16T23:06:25.472Z,4.8
2019-02-16T23:09:25.387Z,4.3
2019-02-16T23:12:25.161Z,4.3
2019-02-16T23:15:24.470Z,5
2019-02-16T23:18:25.148Z,4.8
2019-02-16T23:21:24.432Z,4.7
2019-02-16T23:24:25.480Z,4.3
2019-02-16T23:27:25.514Z,4.3
2019-02-16T23:30:24.861Z,5.2
2019-02-16T23:33:25.207Z,4.4
2019-02-16T23:36:24.737Z,4.3
2019-02-16T23:39:24.964Z,4.6
2019-02-16T23:42:24.755Z,4.5
2019-02-16T23:45:25.161Z,4.9
2019-02-16T23:48:25.018Z,4.5
2019-02-16T23:51:24.840Z,4.6
2019-02-16T23:54:25.875Z,4.8
2019-02-16T23:57:24.482Z,4.5
